sensor_id;sensor_type;location;lat;lon;timestamp;P1;durP1;ratioP1;P2;durP2;ratioP2
52015;SDS011;38032;53.326;6.472;2023-03-23T00:04:52;3.92;;;2.03;;
52015;SDS011;38032;53.326;6.472;2023-03-23T00:07:19;3.33;;;2.17;;
52015;SDS011;38032;53.326;6.472;2023-03-23T00:09:52;4.97;;;2.53;;
52015;SDS011;38032;53.326;6.472;2023-03-23T00:12:20;4.10;;;2.70;;
52015;SDS011;38032;53.326;6.472;2023-03-23T00:14:59;5.72;;;3.05;;
52015;SDS011;38032;53.326;6.472;2023-03-23T00:17:27;4.78;;;3.35;;
52015;SDS011;38032;53.326;6.472;2023-03-23T00:19:53;4.93;;;3.30;;
52015;SDS011;38032;53.326;6.472;2023-03-23T00:22:19;5.95;;;3.78;;
52015;SDS011;38032;53.326;6.472;2023-03-23T00:24:46;4.90;;;3.97;;
52015;SDS011;38032;53.326;6.472;2023-03-23T00:27:15;6.72;;;4.72;;
52015;SDS011;38032;53.326;6.472;2023-03-23T00:29:42;5.15;;;3.88;;
52015;SDS011;38032;53.326;6.472;2023-03-23T00:32:10;7.80;;;4.78;;
52015;SDS011;38032;53.326;6.472;2023-03-23T00:34:39;5.03;;;3.50;;
52015;SDS011;38032;53.326;6.472;2023-03-23T00:37:08;6.80;;;4.50;;
52015;SDS011;38032;53.326;6.472;2023-03-23T00:39:34;5.30;;;4.18;;
52015;SDS011;38032;53.326;6.472;2023-03-23T00:42:02;5.72;;;4.00;;
52015;SDS011;38032;53.326;6.472;2023-03-23T00:44:29;5.78;;;4.22;;
52015;SDS011;38032;53.326;6.472;2023-03-23T00:46:58;4.82;;;3.50;;
52015;SDS011;38032;53.326;6.472;2023-03-23T00:49:25;6.57;;;4.57;;
52015;SDS011;38032;53.326;6.472;2023-03-23T00:51:52;6.72;;;5.10;;
52015;SDS011;38032;53.326;6.472;2023-03-23T00:54:19;8.77;;;4.75;;
52015;SDS011;38032;53.326;6.472;2023-03-23T00:56:46;6.50;;;5.22;;
52015;SDS011;38032;53.326;6.472;2023-03-23T00:59:12;6.50;;;5.50;;
52015;SDS011;38032;53.326;6.472;2023-03-23T01:01:38;5.88;;;4.93;;
52015;SDS011;38032;53.326;6.472;2023-03-23T01:04:05;7.95;;;7.13;;
52015;SDS011;38032;53.326;6.472;2023-03-23T01:06:32;9.07;;;7.10;;
52015;SDS011;38032;53.326;6.472;2023-03-23T01:09:00;8.57;;;6.95;;
52015;SDS011;38032;53.326;6.472;2023-03-23T01:11:29;8.90;;;6.93;;
52015;SDS011;38032;53.326;6.472;2023-03-23T01:13:55;11.25;;;8.57;;
52015;SDS011;38032;53.326;6.472;2023-03-23T01:16:21;10.43;;;7.88;;
52015;SDS011;38032;53.326;6.472;2023-03-23T01:18:47;11.02;;;8.02;;
52015;SDS011;38032;53.326;6.472;2023-03-23T01:21:14;11.40;;;7.57;;
52015;SDS011;38032;53.326;6.472;2023-03-23T01:23:44;9.43;;;7.20;;
52015;SDS011;38032;53.326;6.472;2023-03-23T01:26:12;10.43;;;6.93;;
52015;SDS011;38032;53.326;6.472;2023-03-23T01:28:39;8.13;;;6.57;;
52015;SDS011;38032;53.326;6.472;2023-03-23T01:31:07;7.00;;;5.32;;
52015;SDS011;38032;53.326;6.472;2023-03-23T01:33:37;8.02;;;5.45;;
52015;SDS011;38032;53.326;6.472;2023-03-23T01:36:04;6.28;;;5.20;;
52015;SDS011;38032;53.326;6.472;2023-03-23T01:38:33;8.90;;;5.13;;
52015;SDS011;38032;53.326;6.472;2023-03-23T01:41:00;7.65;;;4.78;;
52015;SDS011;38032;53.326;6.472;2023-03-23T01:43:26;5.85;;;4.03;;
52015;SDS011;38032;53.326;6.472;2023-03-23T01:45:52;6.65;;;4.35;;
52015;SDS011;38032;53.326;6.472;2023-03-23T01:48:21;7.25;;;4.97;;
52015;SDS011;38032;53.326;6.472;2023-03-23T01:50:53;7.07;;;4.55;;
52015;SDS011;38032;53.326;6.472;2023-03-23T01:53:25;7.13;;;4.82;;
52015;SDS011;38032;53.326;6.472;2023-03-23T01:55:54;8.93;;;4.90;;
52015;SDS011;38032;53.326;6.472;2023-03-23T01:58:25;6.97;;;4.90;;
52015;SDS011;38032;53.326;6.472;2023-03-23T02:00:53;7.25;;;5.18;;
52015;SDS011;38032;53.326;6.472;2023-03-23T02:03:21;7.80;;;5.75;;
52015;SDS011;38032;53.326;6.472;2023-03-23T02:05:48;8.60;;;5.47;;
52015;SDS011;38032;53.326;6.472;2023-03-23T02:08:16;8.73;;;5.30;;
52015;SDS011;38032;53.326;6.472;2023-03-23T02:10:43;10.32;;;7.28;;
52015;SDS011;38032;53.326;6.472;2023-03-23T02:13:09;11.25;;;6.70;;
52015;SDS011;38032;53.326;6.472;2023-03-23T02:18:22;10.48;;;6.40;;
52015;SDS011;38032;53.326;6.472;2023-03-23T02:21:15;10.13;;;6.53;;
52015;SDS011;38032;53.326;6.472;2023-03-23T02:32:00;9.57;;;5.68;;
52015;SDS011;38032;53.326;6.472;2023-03-23T02:34:38;9.68;;;6.00;;
52015;SDS011;38032;53.326;6.472;2023-03-23T02:37:10;12.32;;;6.63;;
52015;SDS011;38032;53.326;6.472;2023-03-23T02:42:09;9.32;;;5.53;;
52015;SDS011;38032;53.326;6.472;2023-03-23T02:44:38;10.68;;;5.85;;
52015;SDS011;38032;53.326;6.472;2023-03-23T02:47:08;9.77;;;5.72;;
52015;SDS011;38032;53.326;6.472;2023-03-23T02:49:37;8.63;;;5.43;;
52015;SDS011;38032;53.326;6.472;2023-03-23T02:52:09;7.38;;;5.25;;
52015;SDS011;38032;53.326;6.472;2023-03-23T02:54:40;10.57;;;5.63;;
52015;SDS011;38032;53.326;6.472;2023-03-23T02:57:09;7.90;;;5.60;;
52015;SDS011;38032;53.326;6.472;2023-03-23T02:59:36;9.00;;;5.70;;
52015;SDS011;38032;53.326;6.472;2023-03-23T03:04:40;10.07;;;4.85;;
52015;SDS011;38032;53.326;6.472;2023-03-23T03:07:15;6.68;;;4.80;;
52015;SDS011;38032;53.326;6.472;2023-03-23T03:10:04;8.98;;;5.40;;
52015;SDS011;38032;53.326;6.472;2023-03-23T03:12:53;6.88;;;4.90;;
52015;SDS011;38032;53.326;6.472;2023-03-23T03:15:31;7.70;;;4.88;;
52015;SDS011;38032;53.326;6.472;2023-03-23T03:18:14;7.63;;;4.18;;
52015;SDS011;38032;53.326;6.472;2023-03-23T03:20:49;5.57;;;4.10;;
52015;SDS011;38032;53.326;6.472;2023-03-23T03:23:18;8.52;;;4.40;;
52015;SDS011;38032;53.326;6.472;2023-03-23T03:25:47;7.15;;;4.90;;
52015;SDS011;38032;53.326;6.472;2023-03-23T03:28:16;10.68;;;5.60;;
52015;SDS011;38032;53.326;6.472;2023-03-23T03:30:47;8.95;;;4.68;;
52015;SDS011;38032;53.326;6.472;2023-03-23T03:33:17;9.55;;;5.25;;
52015;SDS011;38032;53.326;6.472;2023-03-23T03:35:45;7.30;;;4.72;;
52015;SDS011;38032;53.326;6.472;2023-03-23T03:38:13;8.27;;;5.15;;
52015;SDS011;38032;53.326;6.472;2023-03-23T03:40:39;8.25;;;4.50;;
52015;SDS011;38032;53.326;6.472;2023-03-23T03:43:04;9.25;;;4.63;;
52015;SDS011;38032;53.326;6.472;2023-03-23T03:45:32;6.63;;;4.47;;
52015;SDS011;38032;53.326;6.472;2023-03-23T03:47:58;9.35;;;4.70;;
52015;SDS011;38032;53.326;6.472;2023-03-23T03:50:25;7.05;;;4.57;;
52015;SDS011;38032;53.326;6.472;2023-03-23T03:52:51;10.93;;;5.10;;
52015;SDS011;38032;53.326;6.472;2023-03-23T03:55:17;7.28;;;4.18;;
52015;SDS011;38032;53.326;6.472;2023-03-23T03:57:43;8.68;;;4.63;;
52015;SDS011;38032;53.326;6.472;2023-03-23T04:00:09;8.35;;;4.20;;
52015;SDS011;38032;53.326;6.472;2023-03-23T04:02:43;9.75;;;4.13;;
52015;SDS011;38032;53.326;6.472;2023-03-23T04:05:19;7.45;;;4.07;;
52015;SDS011;38032;53.326;6.472;2023-03-23T04:07:46;8.82;;;4.28;;
52015;SDS011;38032;53.326;6.472;2023-03-23T04:10:14;6.20;;;3.78;;
52015;SDS011;38032;53.326;6.472;2023-03-23T04:12:40;5.68;;;3.50;;
52015;SDS011;38032;53.326;6.472;2023-03-23T04:15:06;6.50;;;3.58;;
52015;SDS011;38032;53.326;6.472;2023-03-23T04:17:33;7.75;;;4.18;;
52015;SDS011;38032;53.326;6.472;2023-03-23T04:20:01;5.63;;;3.22;;
52015;SDS011;38032;53.326;6.472;2023-03-23T04:22:36;4.90;;;3.20;;
52015;SDS011;38032;53.326;6.472;2023-03-23T04:25:02;6.28;;;3.80;;
52015;SDS011;38032;53.326;6.472;2023-03-23T04:27:31;6.97;;;4.40;;
52015;SDS011;38032;53.326;6.472;2023-03-23T04:29:57;7.60;;;3.95;;
52015;SDS011;38032;53.326;6.472;2023-03-23T04:32:24;6.72;;;3.63;;
52015;SDS011;38032;53.326;6.472;2023-03-23T04:34:54;7.70;;;3.10;;
52015;SDS011;38032;53.326;6.472;2023-03-23T04:37:21;6.93;;;3.38;;
52015;SDS011;38032;53.326;6.472;2023-03-23T04:39:52;7.50;;;3.03;;
52015;SDS011;38032;53.326;6.472;2023-03-23T04:42:26;7.32;;;2.75;;
52015;SDS011;38032;53.326;6.472;2023-03-23T04:44:53;5.50;;;2.65;;
52015;SDS011;38032;53.326;6.472;2023-03-23T04:47:20;8.05;;;2.63;;
52015;SDS011;38032;53.326;6.472;2023-03-23T04:49:46;6.20;;;2.40;;
52015;SDS011;38032;53.326;6.472;2023-03-23T04:52:12;5.18;;;2.50;;
52015;SDS011;38032;53.326;6.472;2023-03-23T04:54:39;4.88;;;2.30;;
52015;SDS011;38032;53.326;6.472;2023-03-23T04:57:05;5.18;;;2.35;;
52015;SDS011;38032;53.326;6.472;2023-03-23T04:59:33;6.90;;;2.50;;
52015;SDS011;38032;53.326;6.472;2023-03-23T05:01:59;7.88;;;2.60;;
52015;SDS011;38032;53.326;6.472;2023-03-23T05:04:25;9.27;;;3.03;;
52015;SDS011;38032;53.326;6.472;2023-03-23T05:06:51;10.02;;;2.83;;
52015;SDS011;38032;53.326;6.472;2023-03-23T05:09:17;6.80;;;2.60;;
52015;SDS011;38032;53.326;6.472;2023-03-23T05:11:44;7.13;;;2.78;;
52015;SDS011;38032;53.326;6.472;2023-03-23T05:14:11;6.20;;;2.90;;
52015;SDS011;38032;53.326;6.472;2023-03-23T05:16:37;7.47;;;2.40;;
52015;SDS011;38032;53.326;6.472;2023-03-23T05:19:03;8.50;;;2.78;;
52015;SDS011;38032;53.326;6.472;2023-03-23T05:21:30;7.85;;;2.80;;
52015;SDS011;38032;53.326;6.472;2023-03-23T05:23:56;8.80;;;3.58;;
52015;SDS011;38032;53.326;6.472;2023-03-23T05:26:26;8.60;;;2.60;;
52015;SDS011;38032;53.326;6.472;2023-03-23T05:28:54;8.82;;;3.20;;
52015;SDS011;38032;53.326;6.472;2023-03-23T05:31:21;9.07;;;2.90;;
52015;SDS011;38032;53.326;6.472;2023-03-23T05:33:49;7.50;;;2.65;;
52015;SDS011;38032;53.326;6.472;2023-03-23T05:36:15;11.65;;;3.45;;
52015;SDS011;38032;53.326;6.472;2023-03-23T05:38:41;9.50;;;2.97;;
52015;SDS011;38032;53.326;6.472;2023-03-23T05:41:10;9.57;;;3.08;;
52015;SDS011;38032;53.326;6.472;2023-03-23T05:43:37;9.68;;;3.83;;
52015;SDS011;38032;53.326;6.472;2023-03-23T05:46:03;6.85;;;3.15;;
52015;SDS011;38032;53.326;6.472;2023-03-23T05:48:29;8.38;;;3.00;;
52015;SDS011;38032;53.326;6.472;2023-03-23T05:50:55;14.07;;;3.25;;
52015;SDS011;38032;53.326;6.472;2023-03-23T05:53:21;12.52;;;3.33;;
52015;SDS011;38032;53.326;6.472;2023-03-23T05:55:48;12.48;;;3.42;;
52015;SDS011;38032;53.326;6.472;2023-03-23T05:58:14;13.10;;;3.80;;
52015;SDS011;38032;53.326;6.472;2023-03-23T06:00:40;10.43;;;3.58;;
52015;SDS011;38032;53.326;6.472;2023-03-23T06:03:06;11.73;;;3.13;;
52015;SDS011;38032;53.326;6.472;2023-03-23T06:05:32;15.63;;;3.97;;
52015;SDS011;38032;53.326;6.472;2023-03-23T06:07:58;13.13;;;3.47;;
52015;SDS011;38032;53.326;6.472;2023-03-23T06:10:25;11.60;;;3.50;;
52015;SDS011;38032;53.326;6.472;2023-03-23T06:12:51;12.85;;;3.65;;
52015;SDS011;38032;53.326;6.472;2023-03-23T06:15:18;9.55;;;2.90;;
52015;SDS011;38032;53.326;6.472;2023-03-23T06:17:44;11.20;;;3.28;;
52015;SDS011;38032;53.326;6.472;2023-03-23T06:20:10;15.13;;;4.13;;
52015;SDS011;38032;53.326;6.472;2023-03-23T06:22:37;14.65;;;3.55;;
52015;SDS011;38032;53.326;6.472;2023-03-23T06:25:05;11.20;;;3.55;;
52015;SDS011;38032;53.326;6.472;2023-03-23T06:27:33;13.35;;;3.10;;
52015;SDS011;38032;53.326;6.472;2023-03-23T06:30:00;10.65;;;3.00;;
52015;SDS011;38032;53.326;6.472;2023-03-23T06:32:28;9.63;;;2.97;;
52015;SDS011;38032;53.326;6.472;2023-03-23T06:34:56;9.48;;;2.85;;
52015;SDS011;38032;53.326;6.472;2023-03-23T06:37:22;13.05;;;3.30;;
52015;SDS011;38032;53.326;6.472;2023-03-23T06:39:50;11.35;;;2.85;;
52015;SDS011;38032;53.326;6.472;2023-03-23T06:42:17;9.65;;;3.45;;
52015;SDS011;38032;53.326;6.472;2023-03-23T06:44:43;9.23;;;2.70;;
52015;SDS011;38032;53.326;6.472;2023-03-23T06:47:09;8.82;;;2.55;;
52015;SDS011;38032;53.326;6.472;2023-03-23T06:49:35;8.10;;;2.67;;
52015;SDS011;38032;53.326;6.472;2023-03-23T06:52:01;9.18;;;2.20;;
52015;SDS011;38032;53.326;6.472;2023-03-23T06:54:28;10.75;;;2.47;;
52015;SDS011;38032;53.326;6.472;2023-03-23T06:56:54;8.00;;;2.35;;
52015;SDS011;38032;53.326;6.472;2023-03-23T06:59:20;6.15;;;2.40;;
52015;SDS011;38032;53.326;6.472;2023-03-23T07:01:46;8.07;;;2.28;;
52015;SDS011;38032;53.326;6.472;2023-03-23T07:04:13;9.30;;;2.50;;
52015;SDS011;38032;53.326;6.472;2023-03-23T07:06:39;9.35;;;2.17;;
52015;SDS011;38032;53.326;6.472;2023-03-23T07:09:05;11.95;;;2.28;;
52015;SDS011;38032;53.326;6.472;2023-03-23T07:11:31;7.05;;;2.08;;
52015;SDS011;38032;53.326;6.472;2023-03-23T07:13:57;7.65;;;2.20;;
52015;SDS011;38032;53.326;6.472;2023-03-23T07:16:23;6.05;;;2.17;;
52015;SDS011;38032;53.326;6.472;2023-03-23T07:18:49;10.95;;;2.78;;
52015;SDS011;38032;53.326;6.472;2023-03-23T07:21:15;14.23;;;3.40;;
52015;SDS011;38032;53.326;6.472;2023-03-23T07:23:42;7.35;;;2.42;;
52015;SDS011;38032;53.326;6.472;2023-03-23T07:26:08;9.75;;;2.88;;
52015;SDS011;38032;53.326;6.472;2023-03-23T07:28:34;10.82;;;2.72;;
52015;SDS011;38032;53.326;6.472;2023-03-23T07:31:00;8.85;;;2.58;;
52015;SDS011;38032;53.326;6.472;2023-03-23T07:33:25;12.40;;;2.97;;
52015;SDS011;38032;53.326;6.472;2023-03-23T07:35:52;9.90;;;2.63;;
52015;SDS011;38032;53.326;6.472;2023-03-23T07:38:17;11.73;;;3.55;;
52015;SDS011;38032;53.326;6.472;2023-03-23T07:40:45;8.77;;;3.15;;
52015;SDS011;38032;53.326;6.472;2023-03-23T07:43:12;13.55;;;3.28;;
52015;SDS011;38032;53.326;6.472;2023-03-23T07:45:38;14.77;;;3.88;;
52015;SDS011;38032;53.326;6.472;2023-03-23T07:48:04;15.15;;;4.03;;
52015;SDS011;38032;53.326;6.472;2023-03-23T07:50:30;15.68;;;3.70;;
52015;SDS011;38032;53.326;6.472;2023-03-23T07:52:57;13.07;;;3.75;;
52015;SDS011;38032;53.326;6.472;2023-03-23T07:55:24;14.35;;;3.80;;
52015;SDS011;38032;53.326;6.472;2023-03-23T07:57:52;16.30;;;4.22;;
52015;SDS011;38032;53.326;6.472;2023-03-23T08:00:19;16.63;;;3.92;;
52015;SDS011;38032;53.326;6.472;2023-03-23T08:02:50;12.18;;;3.58;;
52015;SDS011;38032;53.326;6.472;2023-03-23T08:05:18;21.20;;;4.55;;
52015;SDS011;38032;53.326;6.472;2023-03-23T08:07:47;19.40;;;4.47;;
52015;SDS011;38032;53.326;6.472;2023-03-23T08:10:14;17.42;;;4.25;;
52015;SDS011;38032;53.326;6.472;2023-03-23T08:12:42;18.10;;;4.13;;
52015;SDS011;38032;53.326;6.472;2023-03-23T08:15:09;13.65;;;4.25;;
52015;SDS011;38032;53.326;6.472;2023-03-23T08:17:42;12.25;;;3.92;;
52015;SDS011;38032;53.326;6.472;2023-03-23T08:20:09;18.58;;;4.72;;
52015;SDS011;38032;53.326;6.472;2023-03-23T08:22:39;17.77;;;4.70;;
52015;SDS011;38032;53.326;6.472;2023-03-23T08:25:06;16.80;;;4.07;;
52015;SDS011;38032;53.326;6.472;2023-03-23T08:27:33;15.20;;;4.20;;
52015;SDS011;38032;53.326;6.472;2023-03-23T08:29:59;14.05;;;3.92;;
52015;SDS011;38032;53.326;6.472;2023-03-23T08:32:25;14.85;;;4.03;;
52015;SDS011;38032;53.326;6.472;2023-03-23T08:34:52;14.40;;;4.25;;
52015;SDS011;38032;53.326;6.472;2023-03-23T08:37:18;16.67;;;4.43;;
52015;SDS011;38032;53.326;6.472;2023-03-23T08:39:44;14.93;;;4.63;;
52015;SDS011;38032;53.326;6.472;2023-03-23T08:42:10;17.38;;;4.30;;
52015;SDS011;38032;53.326;6.472;2023-03-23T08:44:36;14.82;;;4.35;;
52015;SDS011;38032;53.326;6.472;2023-03-23T08:47:03;18.90;;;4.53;;
52015;SDS011;38032;53.326;6.472;2023-03-23T08:49:30;14.73;;;4.55;;
52015;SDS011;38032;53.326;6.472;2023-03-23T08:51:58;18.85;;;4.88;;
52015;SDS011;38032;53.326;6.472;2023-03-23T08:54:24;13.10;;;4.15;;
52015;SDS011;38032;53.326;6.472;2023-03-23T08:56:50;15.32;;;4.70;;
52015;SDS011;38032;53.326;6.472;2023-03-23T08:59:16;16.67;;;4.63;;
52015;SDS011;38032;53.326;6.472;2023-03-23T09:01:42;17.90;;;4.80;;
52015;SDS011;38032;53.326;6.472;2023-03-23T09:04:08;18.00;;;5.07;;
52015;SDS011;38032;53.326;6.472;2023-03-23T09:06:36;15.77;;;4.32;;
52015;SDS011;38032;53.326;6.472;2023-03-23T09:09:03;17.98;;;4.70;;
52015;SDS011;38032;53.326;6.472;2023-03-23T09:11:35;13.55;;;3.88;;
52015;SDS011;38032;53.326;6.472;2023-03-23T09:14:02;15.20;;;4.20;;
52015;SDS011;38032;53.326;6.472;2023-03-23T09:16:29;18.55;;;4.65;;
52015;SDS011;38032;53.326;6.472;2023-03-23T09:18:56;16.48;;;4.50;;
52015;SDS011;38032;53.326;6.472;2023-03-23T09:21:23;16.45;;;4.32;;
52015;SDS011;38032;53.326;6.472;2023-03-23T09:23:50;15.25;;;4.40;;
52015;SDS011;38032;53.326;6.472;2023-03-23T09:26:17;16.02;;;4.57;;
52015;SDS011;38032;53.326;6.472;2023-03-23T09:28:43;12.70;;;4.18;;
52015;SDS011;38032;53.326;6.472;2023-03-23T09:31:11;13.52;;;3.85;;
52015;SDS011;38032;53.326;6.472;2023-03-23T09:33:37;13.68;;;3.63;;
52015;SDS011;38032;53.326;6.472;2023-03-23T09:36:04;15.88;;;4.38;;
52015;SDS011;38032;53.326;6.472;2023-03-23T09:38:31;11.35;;;3.67;;
52015;SDS011;38032;53.326;6.472;2023-03-23T09:41:01;15.95;;;4.30;;
52015;SDS011;38032;53.326;6.472;2023-03-23T09:43:32;16.05;;;4.80;;
52015;SDS011;38032;53.326;6.472;2023-03-23T09:51:24;18.25;;;4.32;;
52015;SDS011;38032;53.326;6.472;2023-03-23T09:54:10;15.48;;;4.05;;
52015;SDS011;38032;53.326;6.472;2023-03-23T09:56:48;31.40;;;5.05;;
52015;SDS011;38032;53.326;6.472;2023-03-23T09:59:22;14.95;;;4.40;;
52015;SDS011;38032;53.326;6.472;2023-03-23T10:02:10;14.88;;;4.32;;
52015;SDS011;38032;53.326;6.472;2023-03-23T10:04:43;16.52;;;4.55;;
52015;SDS011;38032;53.326;6.472;2023-03-23T10:07:14;14.15;;;4.22;;
52015;SDS011;38032;53.326;6.472;2023-03-23T10:09:43;14.15;;;4.20;;
52015;SDS011;38032;53.326;6.472;2023-03-23T10:12:15;13.80;;;4.78;;
52015;SDS011;38032;53.326;6.472;2023-03-23T10:22:38;16.02;;;4.43;;
52015;SDS011;38032;53.326;6.472;2023-03-23T10:27:42;12.38;;;3.58;;
52015;SDS011;38032;53.326;6.472;2023-03-23T10:32:47;10.00;;;3.90;;
52015;SDS011;38032;53.326;6.472;2023-03-23T10:35:24;12.63;;;3.92;;
52015;SDS011;38032;53.326;6.472;2023-03-23T10:40:26;14.65;;;4.32;;
52015;SDS011;38032;53.326;6.472;2023-03-23T10:42:54;12.38;;;3.80;;
52015;SDS011;38032;53.326;6.472;2023-03-23T10:45:22;13.35;;;4.18;;
52015;SDS011;38032;53.326;6.472;2023-03-23T10:47:53;12.25;;;3.72;;
52015;SDS011;38032;53.326;6.472;2023-03-23T10:50:26;10.27;;;3.63;;
52015;SDS011;38032;53.326;6.472;2023-03-23T10:52:54;13.65;;;4.35;;
52015;SDS011;38032;53.326;6.472;2023-03-23T10:55:24;10.38;;;3.70;;
52015;SDS011;38032;53.326;6.472;2023-03-23T10:58:01;10.50;;;3.65;;
52015;SDS011;38032;53.326;6.472;2023-03-23T11:00:30;7.75;;;3.50;;
52015;SDS011;38032;53.326;6.472;2023-03-23T11:02:58;12.48;;;4.13;;
52015;SDS011;38032;53.326;6.472;2023-03-23T11:05:32;13.95;;;4.32;;
52015;SDS011;38032;53.326;6.472;2023-03-23T11:08:02;10.02;;;4.10;;
52015;SDS011;38032;53.326;6.472;2023-03-23T11:10:36;10.48;;;3.75;;
52015;SDS011;38032;53.326;6.472;2023-03-23T11:13:04;11.50;;;3.67;;
52015;SDS011;38032;53.326;6.472;2023-03-23T11:15:37;12.68;;;4.00;;
52015;SDS011;38032;53.326;6.472;2023-03-23T11:18:08;10.50;;;3.90;;
52015;SDS011;38032;53.326;6.472;2023-03-23T11:20:37;12.75;;;3.95;;
52015;SDS011;38032;53.326;6.472;2023-03-23T11:23:08;11.68;;;3.60;;
52015;SDS011;38032;53.326;6.472;2023-03-23T11:28:32;12.10;;;3.70;;
52015;SDS011;38032;53.326;6.472;2023-03-23T11:31:02;11.90;;;3.60;;
52015;SDS011;38032;53.326;6.472;2023-03-23T11:33:35;11.65;;;3.92;;
52015;SDS011;38032;53.326;6.472;2023-03-23T11:36:04;12.53;;;3.63;;
52015;SDS011;38032;53.326;6.472;2023-03-23T11:38:32;11.93;;;3.60;;
52015;SDS011;38032;53.326;6.472;2023-03-23T11:40:58;13.27;;;3.65;;
52015;SDS011;38032;53.326;6.472;2023-03-23T11:43:25;12.52;;;3.83;;
52015;SDS011;38032;53.326;6.472;2023-03-23T11:45:54;12.68;;;3.70;;
52015;SDS011;38032;53.326;6.472;2023-03-23T11:48:38;11.80;;;3.60;;
52015;SDS011;38032;53.326;6.472;2023-03-23T11:51:13;11.02;;;3.47;;
52015;SDS011;38032;53.326;6.472;2023-03-23T11:54:02;9.00;;;3.08;;
52015;SDS011;38032;53.326;6.472;2023-03-23T11:56:33;9.98;;;3.22;;
52015;SDS011;38032;53.326;6.472;2023-03-23T11:59:01;10.38;;;3.55;;
52015;SDS011;38032;53.326;6.472;2023-03-23T12:04:13;9.10;;;3.05;;
52015;SDS011;38032;53.326;6.472;2023-03-23T12:12:14;10.75;;;3.30;;
52015;SDS011;38032;53.326;6.472;2023-03-23T12:14:46;10.27;;;2.80;;
52015;SDS011;38032;53.326;6.472;2023-03-23T12:17:23;8.50;;;3.03;;
52015;SDS011;38032;53.326;6.472;2023-03-23T12:20:09;9.00;;;2.60;;
52015;SDS011;38032;53.326;6.472;2023-03-23T12:25:42;9.73;;;3.20;;
52015;SDS011;38032;53.326;6.472;2023-03-23T12:28:14;8.85;;;2.58;;
52015;SDS011;38032;53.326;6.472;2023-03-23T12:30:47;10.32;;;2.80;;
52015;SDS011;38032;53.326;6.472;2023-03-23T12:33:25;8.68;;;2.88;;
52015;SDS011;38032;53.326;6.472;2023-03-23T12:36:04;12.88;;;3.00;;
52015;SDS011;38032;53.326;6.472;2023-03-23T12:41:18;12.05;;;3.00;;
52015;SDS011;38032;53.326;6.472;2023-03-23T12:43:52;9.32;;;3.17;;
52015;SDS011;38032;53.326;6.472;2023-03-23T12:48:59;11.75;;;3.85;;
52015;SDS011;38032;53.326;6.472;2023-03-23T12:51:38;9.30;;;2.90;;
52015;SDS011;38032;53.326;6.472;2023-03-23T12:59:19;11.52;;;3.55;;
52015;SDS011;38032;53.326;6.472;2023-03-23T13:02:05;14.73;;;3.55;;
52015;SDS011;38032;53.326;6.472;2023-03-23T13:04:35;12.57;;;3.42;;
52015;SDS011;38032;53.326;6.472;2023-03-23T13:07:05;11.13;;;3.15;;
52015;SDS011;38032;53.326;6.472;2023-03-23T13:09:46;10.52;;;3.15;;
52015;SDS011;38032;53.326;6.472;2023-03-23T13:12:18;10.45;;;3.08;;
52015;SDS011;38032;53.326;6.472;2023-03-23T13:17:26;10.70;;;3.35;;
52015;SDS011;38032;53.326;6.472;2023-03-23T13:22:50;9.85;;;3.10;;
52015;SDS011;38032;53.326;6.472;2023-03-23T13:28:22;11.00;;;3.03;;
52015;SDS011;38032;53.326;6.472;2023-03-23T13:31:00;12.68;;;3.67;;
52015;SDS011;38032;53.326;6.472;2023-03-23T13:33:43;13.18;;;3.08;;
52015;SDS011;38032;53.326;6.472;2023-03-23T13:36:12;8.75;;;3.25;;
52015;SDS011;38032;53.326;6.472;2023-03-23T13:38:45;10.88;;;3.13;;
52015;SDS011;38032;53.326;6.472;2023-03-23T13:41:13;10.60;;;3.72;;
52015;SDS011;38032;53.326;6.472;2023-03-23T13:43:42;17.50;;;4.47;;
52015;SDS011;38032;53.326;6.472;2023-03-23T13:46:11;12.95;;;3.40;;
52015;SDS011;38032;53.326;6.472;2023-03-23T13:48:40;13.57;;;3.70;;
52015;SDS011;38032;53.326;6.472;2023-03-23T13:59:13;14.57;;;4.00;;
52015;SDS011;38032;53.326;6.472;2023-03-23T14:01:41;18.45;;;3.70;;
52015;SDS011;38032;53.326;6.472;2023-03-23T14:04:15;11.95;;;3.83;;
52015;SDS011;38032;53.326;6.472;2023-03-23T14:06:45;12.68;;;3.42;;
52015;SDS011;38032;53.326;6.472;2023-03-23T14:09:16;18.02;;;3.92;;
52015;SDS011;38032;53.326;6.472;2023-03-23T14:11:55;12.60;;;3.33;;
52015;SDS011;38032;53.326;6.472;2023-03-23T14:14:25;13.00;;;3.38;;
52015;SDS011;38032;53.326;6.472;2023-03-23T14:17:05;9.88;;;3.10;;
52015;SDS011;38032;53.326;6.472;2023-03-23T14:19:37;11.27;;;3.50;;
52015;SDS011;38032;53.326;6.472;2023-03-23T14:22:14;12.93;;;3.42;;
52015;SDS011;38032;53.326;6.472;2023-03-23T14:24:44;12.55;;;3.33;;
52015;SDS011;38032;53.326;6.472;2023-03-23T14:27:12;11.48;;;3.40;;
52015;SDS011;38032;53.326;6.472;2023-03-23T14:29:38;14.35;;;3.78;;
52015;SDS011;38032;53.326;6.472;2023-03-23T14:32:05;12.02;;;3.20;;
52015;SDS011;38032;53.326;6.472;2023-03-23T14:34:33;9.85;;;3.17;;
52015;SDS011;38032;53.326;6.472;2023-03-23T14:37:00;10.48;;;3.03;;
52015;SDS011;38032;53.326;6.472;2023-03-23T14:39:29;15.48;;;3.22;;
52015;SDS011;38032;53.326;6.472;2023-03-23T14:42:01;11.00;;;3.75;;
52015;SDS011;38032;53.326;6.472;2023-03-23T14:44:29;8.40;;;2.97;;
52015;SDS011;38032;53.326;6.472;2023-03-23T14:46:58;10.48;;;3.10;;
52015;SDS011;38032;53.326;6.472;2023-03-23T14:49:29;10.98;;;3.22;;
52015;SDS011;38032;53.326;6.472;2023-03-23T14:52:02;13.75;;;3.47;;
52015;SDS011;38032;53.326;6.472;2023-03-23T14:54:34;12.95;;;3.58;;
52015;SDS011;38032;53.326;6.472;2023-03-23T14:57:05;8.95;;;2.65;;
52015;SDS011;38032;53.326;6.472;2023-03-23T14:59:39;10.35;;;3.15;;
52015;SDS011;38032;53.326;6.472;2023-03-23T15:02:05;12.82;;;3.55;;
52015;SDS011;38032;53.326;6.472;2023-03-23T15:04:35;10.75;;;2.67;;
52015;SDS011;38032;53.326;6.472;2023-03-23T15:07:03;12.68;;;3.25;;
52015;SDS011;38032;53.326;6.472;2023-03-23T15:09:31;10.82;;;3.40;;
52015;SDS011;38032;53.326;6.472;2023-03-23T15:12:00;10.30;;;2.83;;
52015;SDS011;38032;53.326;6.472;2023-03-23T15:14:30;7.57;;;2.78;;
52015;SDS011;38032;53.326;6.472;2023-03-23T15:17:02;8.68;;;2.85;;
52015;SDS011;38032;53.326;6.472;2023-03-23T15:19:31;11.13;;;2.95;;
52015;SDS011;38032;53.326;6.472;2023-03-23T15:22:07;16.52;;;3.10;;
52015;SDS011;38032;53.326;6.472;2023-03-23T15:24:39;10.98;;;3.20;;
52015;SDS011;38032;53.326;6.472;2023-03-23T15:29:45;7.78;;;2.50;;
52015;SDS011;38032;53.326;6.472;2023-03-23T15:32:11;10.65;;;2.95;;
52015;SDS011;38032;53.326;6.472;2023-03-23T15:34:37;10.70;;;2.78;;
52015;SDS011;38032;53.326;6.472;2023-03-23T15:37:06;10.38;;;2.50;;
52015;SDS011;38032;53.326;6.472;2023-03-23T15:39:44;7.50;;;3.05;;
52015;SDS011;38032;53.326;6.472;2023-03-23T15:42:25;7.90;;;2.28;;
52015;SDS011;38032;53.326;6.472;2023-03-23T15:45:26;9.17;;;2.77;;
52015;SDS011;38032;53.326;6.472;2023-03-23T15:47:50;6.47;;;2.42;;
52015;SDS011;38032;53.326;6.472;2023-03-23T15:50:18;9.57;;;2.40;;
52015;SDS011;38032;53.326;6.472;2023-03-23T15:52:44;7.70;;;2.47;;
52015;SDS011;38032;53.326;6.472;2023-03-23T15:55:18;7.43;;;2.40;;
52015;SDS011;38032;53.326;6.472;2023-03-23T15:57:46;7.95;;;2.53;;
52015;SDS011;38032;53.326;6.472;2023-03-23T16:00:14;12.80;;;3.03;;
52015;SDS011;38032;53.326;6.472;2023-03-23T16:02:40;11.18;;;2.97;;
52015;SDS011;38032;53.326;6.472;2023-03-23T16:05:09;12.35;;;2.88;;
52015;SDS011;38032;53.326;6.472;2023-03-23T16:07:37;12.48;;;2.95;;
52015;SDS011;38032;53.326;6.472;2023-03-23T16:10:03;12.70;;;3.30;;
52015;SDS011;38032;53.326;6.472;2023-03-23T16:12:30;10.43;;;3.15;;
52015;SDS011;38032;53.326;6.472;2023-03-23T16:14:56;14.02;;;3.50;;
52015;SDS011;38032;53.326;6.472;2023-03-23T16:17:22;11.73;;;3.13;;